sensor_id;sensor_type;location;lat;lon;timestamp;pressure;altitude;pressure_sealevel;temperature
20733;BMP180;10527;52.124;5.196;2022-09-27T00:01:09;99557.00;;;21.70
20733;BMP180;10527;52.124;5.196;2022-09-27T00:03:36;99571.00;;;21.60
20733;BMP180;10527;52.124;5.196;2022-09-27T00:06:28;99567.00;;;21.60
20733;BMP180;10527;52.124;5.196;2022-09-27T00:08:57;99573.00;;;21.60
20733;BMP180;10527;52.124;5.196;2022-09-27T00:11:32;99575.00;;;21.50
20733;BMP180;10527;52.124;5.196;2022-09-27T00:14:19;99577.00;;;21.50
20733;BMP180;10527;52.124;5.196;2022-09-27T00:16:46;99565.00;;;21.40
20733;BMP180;10527;52.124;5.196;2022-09-27T00:19:18;99570.00;;;21.30
20733;BMP180;10527;52.124;5.196;2022-09-27T00:21:46;99561.00;;;21.30
20733;BMP180;10527;52.124;5.196;2022-09-27T00:24:18;99567.00;;;21.30
20733;BMP180;10527;52.124;5.196;2022-09-27T00:26:47;99568.00;;;21.30
20733;BMP180;10527;52.124;5.196;2022-09-27T00:29:16;99561.00;;;21.30
20733;BMP180;10527;52.124;5.196;2022-09-27T00:31:45;99560.00;;;21.30
20733;BMP180;10527;52.124;5.196;2022-09-27T00:34:22;99568.00;;;21.30
20733;BMP180;10527;52.124;5.196;2022-09-27T00:36:50;99557.00;;;21.40
20733;BMP180;10527;52.124;5.196;2022-09-27T00:39:18;99556.00;;;21.40
20733;BMP180;10527;52.124;5.196;2022-09-27T00:41:45;99560.00;;;21.40
20733;BMP180;10527;52.124;5.196;2022-09-27T00:50:07;99562.00;;;21.50
20733;BMP180;10527;52.124;5.196;2022-09-27T00:53:01;99568.00;;;21.50
20733;BMP180;10527;52.124;5.196;2022-09-27T00:55:37;99568.00;;;21.40
20733;BMP180;10527;52.124;5.196;2022-09-27T00:58:06;99563.00;;;21.50
20733;BMP180;10527;52.124;5.196;2022-09-27T01:00:38;99576.00;;;21.50
20733;BMP180;10527;52.124;5.196;2022-09-27T01:03:13;99573.00;;;21.40
20733;BMP180;10527;52.124;5.196;2022-09-27T01:05:43;99568.00;;;21.40
20733;BMP180;10527;52.124;5.196;2022-09-27T01:08:11;99577.00;;;21.40
20733;BMP180;10527;52.124;5.196;2022-09-27T01:11:17;99578.00;;;21.40
20733;BMP180;10527;52.124;5.196;2022-09-27T01:23:47;99586.00;;;21.30
20733;BMP180;10527;52.124;5.196;2022-09-27T01:32:21;99581.00;;;21.20
20733;BMP180;10527;52.124;5.196;2022-09-27T01:38:40;99585.00;;;21.10
20733;BMP180;10527;52.124;5.196;2022-09-27T01:41:35;99596.00;;;21.10
20733;BMP180;10527;52.124;5.196;2022-09-27T01:44:20;99595.00;;;21.20
20733;BMP180;10527;52.124;5.196;2022-09-27T01:46:58;99595.00;;;21.20
20733;BMP180;10527;52.124;5.196;2022-09-27T01:49:58;99585.00;;;21.20
20733;BMP180;10527;52.124;5.196;2022-09-27T01:52:35;99582.00;;;21.10
20733;BMP180;10527;52.124;5.196;2022-09-27T01:55:14;99580.00;;;21.10
20733;BMP180;10527;52.124;5.196;2022-09-27T01:57:50;99582.00;;;21.20
20733;BMP180;10527;52.124;5.196;2022-09-27T02:00:19;99580.00;;;21.20
20733;BMP180;10527;52.124;5.196;2022-09-27T02:02:54;99583.00;;;21.20
20733;BMP180;10527;52.124;5.196;2022-09-27T02:05:32;99577.00;;;21.20
20733;BMP180;10527;52.124;5.196;2022-09-27T02:08:09;99583.00;;;21.20
20733;BMP180;10527;52.124;5.196;2022-09-27T02:10:42;99584.00;;;21.20
20733;BMP180;10527;52.124;5.196;2022-09-27T02:13:22;99588.00;;;21.20
20733;BMP180;10527;52.124;5.196;2022-09-27T02:22:38;99589.00;;;21.10
20733;BMP180;10527;52.124;5.196;2022-09-27T02:25:35;99582.00;;;21.10
20733;BMP180;10527;52.124;5.196;2022-09-27T02:28:10;99584.00;;;21.10
20733;BMP180;10527;52.124;5.196;2022-09-27T02:30:40;99579.00;;;21.00
20733;BMP180;10527;52.124;5.196;2022-09-27T02:33:07;99575.00;;;21.00
20733;BMP180;10527;52.124;5.196;2022-09-27T02:35:35;99576.00;;;21.00
20733;BMP180;10527;52.124;5.196;2022-09-27T02:38:05;99565.00;;;21.00
20733;BMP180;10527;52.124;5.196;2022-09-27T02:40:41;99568.00;;;21.00
20733;BMP180;10527;52.124;5.196;2022-09-27T02:43:08;99565.00;;;21.00
20733;BMP180;10527;52.124;5.196;2022-09-27T02:49:20;99568.00;;;21.00
20733;BMP180;10527;52.124;5.196;2022-09-27T03:03:29;99572.00;;;20.80
20733;BMP180;10527;52.124;5.196;2022-09-27T03:06:10;99581.00;;;20.80
20733;BMP180;10527;52.124;5.196;2022-09-27T03:08:39;99575.00;;;20.70
20733;BMP180;10527;52.124;5.196;2022-09-27T03:11:09;99565.00;;;20.70
20733;BMP180;10527;52.124;5.196;2022-09-27T03:13:36;99583.00;;;20.70
20733;BMP180;10527;52.124;5.196;2022-09-27T03:16:25;99569.00;;;20.70
20733;BMP180;10527;52.124;5.196;2022-09-27T03:18:52;99573.00;;;20.70
20733;BMP180;10527;52.124;5.196;2022-09-27T03:21:19;99569.00;;;20.70
20733;BMP180;10527;52.124;5.196;2022-09-27T03:23:46;99568.00;;;20.70
20733;BMP180;10527;52.124;5.196;2022-09-27T03:26:12;99563.00;;;20.60
20733;BMP180;10527;52.124;5.196;2022-09-27T03:28:41;99571.00;;;20.60
20733;BMP180;10527;52.124;5.196;2022-09-27T03:31:08;99571.00;;;20.60
20733;BMP180;10527;52.124;5.196;2022-09-27T03:33:35;99574.00;;;20.60
20733;BMP180;10527;52.124;5.196;2022-09-27T03:36:17;99569.00;;;20.60
20733;BMP180;10527;52.124;5.196;2022-09-27T03:38:44;99576.00;;;20.50
20733;BMP180;10527;52.124;5.196;2022-09-27T03:41:11;99571.00;;;20.50
20733;BMP180;10527;52.124;5.196;2022-09-27T03:43:38;99577.00;;;20.60
20733;BMP180;10527;52.124;5.196;2022-09-27T03:46:05;99569.00;;;20.60
20733;BMP180;10527;52.124;5.196;2022-09-27T03:48:32;99563.00;;;20.60
20733;BMP180;10527;52.124;5.196;2022-09-27T03:50:58;99575.00;;;20.60
20733;BMP180;10527;52.124;5.196;2022-09-27T03:53:25;99577.00;;;20.70
20733;BMP180;10527;52.124;5.196;2022-09-27T03:55:52;99577.00;;;20.70
20733;BMP180;10527;52.124;5.196;2022-09-27T03:58:19;99580.00;;;20.70
20733;BMP180;10527;52.124;5.196;2022-09-27T04:00:46;99577.00;;;20.70
20733;BMP180;10527;52.124;5.196;2022-09-27T04:03:13;99584.00;;;20.60
20733;BMP180;10527;52.124;5.196;2022-09-27T04:05:40;99588.00;;;20.60
20733;BMP180;10527;52.124;5.196;2022-09-27T04:08:07;99584.00;;;20.60
20733;BMP180;10527;52.124;5.196;2022-09-27T04:10:37;99600.00;;;20.60
20733;BMP180;10527;52.124;5.196;2022-09-27T04:13:05;99588.00;;;20.60
20733;BMP180;10527;52.124;5.196;2022-09-27T04:15:32;99584.00;;;20.50
20733;BMP180;10527;52.124;5.196;2022-09-27T04:17:58;99584.00;;;20.50
20733;BMP180;10527;52.124;5.196;2022-09-27T04:20:25;99588.00;;;20.50
20733;BMP180;10527;52.124;5.196;2022-09-27T04:22:52;99577.00;;;20.50
20733;BMP180;10527;52.124;5.196;2022-09-27T04:25:19;99583.00;;;20.50
20733;BMP180;10527;52.124;5.196;2022-09-27T04:27:47;99588.00;;;20.50
20733;BMP180;10527;52.124;5.196;2022-09-27T04:30:14;99590.00;;;20.50
20733;BMP180;10527;52.124;5.196;2022-09-27T04:32:43;99600.00;;;20.50
20733;BMP180;10527;52.124;5.196;2022-09-27T04:35:11;99592.00;;;20.50
20733;BMP180;10527;52.124;5.196;2022-09-27T04:37:58;99591.00;;;20.50
20733;BMP180;10527;52.124;5.196;2022-09-27T04:40:25;99592.00;;;20.50
20733;BMP180;10527;52.124;5.196;2022-09-27T04:42:52;99601.00;;;20.50
20733;BMP180;10527;52.124;5.196;2022-09-27T04:45:19;99599.00;;;20.50
20733;BMP180;10527;52.124;5.196;2022-09-27T04:47:48;99598.00;;;20.50
20733;BMP180;10527;52.124;5.196;2022-09-27T04:50:17;99597.00;;;20.40
20733;BMP180;10527;52.124;5.196;2022-09-27T04:52:43;99595.00;;;20.40
20733;BMP180;10527;52.124;5.196;2022-09-27T04:55:10;99597.00;;;20.40
20733;BMP180;10527;52.124;5.196;2022-09-27T04:57:37;99593.00;;;20.30
20733;BMP180;10527;52.124;5.196;2022-09-27T05:00:07;99593.00;;;20.40
20733;BMP180;10527;52.124;5.196;2022-09-27T05:02:34;99583.00;;;20.30
20733;BMP180;10527;52.124;5.196;2022-09-27T05:05:01;99582.00;;;20.30
20733;BMP180;10527;52.124;5.196;2022-09-27T05:07:29;99590.00;;;20.30
20733;BMP180;10527;52.124;5.196;2022-09-27T05:09:55;99588.00;;;20.30
20733;BMP180;10527;52.124;5.196;2022-09-27T05:12:22;99595.00;;;20.30
20733;BMP180;10527;52.124;5.196;2022-09-27T05:14:53;99598.00;;;20.30
20733;BMP180;10527;52.124;5.196;2022-09-27T05:17:20;99596.00;;;20.30
20733;BMP180;10527;52.124;5.196;2022-09-27T05:19:48;99599.00;;;20.30
20733;BMP180;10527;52.124;5.196;2022-09-27T05:22:16;99604.00;;;20.20
20733;BMP180;10527;52.124;5.196;2022-09-27T05:24:42;99589.00;;;20.20
20733;BMP180;10527;52.124;5.196;2022-09-27T05:27:14;99597.00;;;20.20
20733;BMP180;10527;52.124;5.196;2022-09-27T05:29:44;99594.00;;;20.20
20733;BMP180;10527;52.124;5.196;2022-09-27T05:32:11;99592.00;;;20.20
20733;BMP180;10527;52.124;5.196;2022-09-27T05:34:38;99589.00;;;20.20
20733;BMP180;10527;52.124;5.196;2022-09-27T05:37:05;99590.00;;;20.20
20733;BMP180;10527;52.124;5.196;2022-09-27T05:39:32;99595.00;;;20.20
20733;BMP180;10527;52.124;5.196;2022-09-27T05:41:59;99595.00;;;20.20
20733;BMP180;10527;52.124;5.196;2022-09-27T05:44:26;99596.00;;;20.20
20733;BMP180;10527;52.124;5.196;2022-09-27T05:46:52;99598.00;;;20.20
20733;BMP180;10527;52.124;5.196;2022-09-27T05:49:20;99597.00;;;20.20
20733;BMP180;10527;52.124;5.196;2022-09-27T05:51:47;99598.00;;;20.20
20733;BMP180;10527;52.124;5.196;2022-09-27T05:54:14;99600.00;;;20.20
20733;BMP180;10527;52.124;5.196;2022-09-27T05:56:41;99598.00;;;20.20
20733;BMP180;10527;52.124;5.196;2022-09-27T05:59:07;99610.00;;;20.20
20733;BMP180;10527;52.124;5.196;2022-09-27T06:01:34;99615.00;;;20.20
20733;BMP180;10527;52.124;5.196;2022-09-27T06:04:03;99618.00;;;20.20
20733;BMP180;10527;52.124;5.196;2022-09-27T06:06:31;99629.00;;;20.20
20733;BMP180;10527;52.124;5.196;2022-09-27T06:09:02;99627.00;;;20.20
20733;BMP180;10527;52.124;5.196;2022-09-27T06:11:29;99623.00;;;20.20
20733;BMP180;10527;52.124;5.196;2022-09-27T06:13:56;99628.00;;;20.10
20733;BMP180;10527;52.124;5.196;2022-09-27T06:16:23;99633.00;;;20.10
20733;BMP180;10527;52.124;5.196;2022-09-27T06:18:49;99632.00;;;20.10
20733;BMP180;10527;52.124;5.196;2022-09-27T06:21:18;99628.00;;;20.10
20733;BMP180;10527;52.124;5.196;2022-09-27T06:23:45;99633.00;;;20.10
20733;BMP180;10527;52.124;5.196;2022-09-27T06:26:17;99623.00;;;20.10
20733;BMP180;10527;52.124;5.196;2022-09-27T06:28:45;99629.00;;;20.10
20733;BMP180;10527;52.124;5.196;2022-09-27T06:31:12;99622.00;;;20.10
20733;BMP180;10527;52.124;5.196;2022-09-27T06:33:41;99633.00;;;20.10
20733;BMP180;10527;52.124;5.196;2022-09-27T06:36:08;99634.00;;;20.10
20733;BMP180;10527;52.124;5.196;2022-09-27T06:38:35;99628.00;;;20.10
20733;BMP180;10527;52.124;5.196;2022-09-27T06:41:04;99632.00;;;20.10
20733;BMP180;10527;52.124;5.196;2022-09-27T06:43:32;99635.00;;;20.10
20733;BMP180;10527;52.124;5.196;2022-09-27T06:46:00;99633.00;;;20.20
20733;BMP180;10527;52.124;5.196;2022-09-27T06:48:32;99628.00;;;20.20
20733;BMP180;10527;52.124;5.196;2022-09-27T06:51:01;99628.00;;;20.20
20733;BMP180;10527;52.124;5.196;2022-09-27T06:53:28;99634.00;;;20.30
20733;BMP180;10527;52.124;5.196;2022-09-27T06:56:00;99631.00;;;20.40
20733;BMP180;10527;52.124;5.196;2022-09-27T06:58:28;99636.00;;;20.40
20733;BMP180;10527;52.124;5.196;2022-09-27T07:01:14;99647.00;;;20.40
20733;BMP180;10527;52.124;5.196;2022-09-27T07:03:41;99637.00;;;20.50
20733;BMP180;10527;52.124;5.196;2022-09-27T07:06:17;99646.00;;;20.60
20733;BMP180;10527;52.124;5.196;2022-09-27T07:08:52;99649.00;;;20.60
20733;BMP180;10527;52.124;5.196;2022-09-27T07:11:21;99654.00;;;20.70
20733;BMP180;10527;52.124;5.196;2022-09-27T07:13:49;99642.00;;;20.70
20733;BMP180;10527;52.124;5.196;2022-09-27T07:16:17;99652.00;;;20.80
20733;BMP180;10527;52.124;5.196;2022-09-27T07:18:47;99657.00;;;20.90
20733;BMP180;10527;52.124;5.196;2022-09-27T07:21:15;99652.00;;;21.00
20733;BMP180;10527;52.124;5.196;2022-09-27T07:23:42;99659.00;;;21.00
20733;BMP180;10527;52.124;5.196;2022-09-27T07:26:09;99666.00;;;21.10
20733;BMP180;10527;52.124;5.196;2022-09-27T07:28:36;99672.00;;;21.10
20733;BMP180;10527;52.124;5.196;2022-09-27T07:31:03;99674.00;;;21.10
20733;BMP180;10527;52.124;5.196;2022-09-27T07:33:31;99665.00;;;21.20
20733;BMP180;10527;52.124;5.196;2022-09-27T07:35:58;99660.00;;;21.20
20733;BMP180;10527;52.124;5.196;2022-09-27T07:38:25;99663.00;;;21.10
20733;BMP180;10527;52.124;5.196;2022-09-27T07:40:52;99667.00;;;21.10
20733;BMP180;10527;52.124;5.196;2022-09-27T07:43:20;99668.00;;;21.20
20733;BMP180;10527;52.124;5.196;2022-09-27T07:45:48;99672.00;;;21.20
20733;BMP180;10527;52.124;5.196;2022-09-27T07:48:16;99677.00;;;21.20
20733;BMP180;10527;52.124;5.196;2022-09-27T07:50:43;99672.00;;;21.20
20733;BMP180;10527;52.124;5.196;2022-09-27T07:53:10;99670.00;;;21.20
20733;BMP180;10527;52.124;5.196;2022-09-27T07:55:39;99679.00;;;21.20
20733;BMP180;10527;52.124;5.196;2022-09-27T07:58:11;99689.00;;;21.20
20733;BMP180;10527;52.124;5.196;2022-09-27T08:00:39;99680.00;;;21.20
20733;BMP180;10527;52.124;5.196;2022-09-27T08:03:09;99676.00;;;21.20
20733;BMP180;10527;52.124;5.196;2022-09-27T08:05:38;99673.00;;;21.20
20733;BMP180;10527;52.124;5.196;2022-09-27T08:08:08;99675.00;;;21.20
20733;BMP180;10527;52.124;5.196;2022-09-27T08:10:35;99670.00;;;21.10
20733;BMP180;10527;52.124;5.196;2022-09-27T08:13:03;99676.00;;;21.10
20733;BMP180;10527;52.124;5.196;2022-09-27T08:15:35;99673.00;;;21.10
20733;BMP180;10527;52.124;5.196;2022-09-27T08:18:14;99686.00;;;21.10
20733;BMP180;10527;52.124;5.196;2022-09-27T08:20:42;99673.00;;;21.10
20733;BMP180;10527;52.124;5.196;2022-09-27T08:23:09;99681.00;;;21.00
20733;BMP180;10527;52.124;5.196;2022-09-27T08:25:36;99696.00;;;21.00
20733;BMP180;10527;52.124;5.196;2022-09-27T08:28:06;99702.00;;;21.00
20733;BMP180;10527;52.124;5.196;2022-09-27T08:30:32;99712.00;;;20.90
20733;BMP180;10527;52.124;5.196;2022-09-27T08:33:01;99721.00;;;20.80
20733;BMP180;10527;52.124;5.196;2022-09-27T08:35:31;99726.00;;;20.70
20733;BMP180;10527;52.124;5.196;2022-09-27T08:38:01;99724.00;;;20.60
20733;BMP180;10527;52.124;5.196;2022-09-27T08:40:55;99718.00;;;20.60
20733;BMP180;10527;52.124;5.196;2022-09-27T08:43:57;99700.00;;;20.50
20733;BMP180;10527;52.124;5.196;2022-09-27T08:46:52;99710.00;;;20.40
20733;BMP180;10527;52.124;5.196;2022-09-27T08:53:42;99727.00;;;20.40
20733;BMP180;10527;52.124;5.196;2022-09-27T08:56:14;99722.00;;;20.30
20733;BMP180;10527;52.124;5.196;2022-09-27T09:01:49;99715.00;;;20.30
20733;BMP180;10527;52.124;5.196;2022-09-27T09:04:36;99714.00;;;20.30
20733;BMP180;10527;52.124;5.196;2022-09-27T09:10:50;99722.00;;;20.20
20733;BMP180;10527;52.124;5.196;2022-09-27T09:14:37;99724.00;;;20.10
20733;BMP180;10527;52.124;5.196;2022-09-27T09:17:21;99731.00;;;20.10
20733;BMP180;10527;52.124;5.196;2022-09-27T09:25:35;99724.00;;;20.10
20733;BMP180;10527;52.124;5.196;2022-09-27T09:32:01;99713.00;;;20.20
20733;BMP180;10527;52.124;5.196;2022-09-27T09:34:46;99714.00;;;20.20
20733;BMP180;10527;52.124;5.196;2022-09-27T09:37:43;99729.00;;;20.30
20733;BMP180;10527;52.124;5.196;2022-09-27T09:40:25;99723.00;;;20.30
20733;BMP180;10527;52.124;5.196;2022-09-27T09:43:24;99728.00;;;20.30
20733;BMP180;10527;52.124;5.196;2022-09-27T09:46:07;99739.00;;;20.40
20733;BMP180;10527;52.124;5.196;2022-09-27T09:48:42;99736.00;;;20.40
20733;BMP180;10527;52.124;5.196;2022-09-27T09:51:27;99734.00;;;20.40
20733;BMP180;10527;52.124;5.196;2022-09-27T09:59:47;99752.00;;;20.40
20733;BMP180;10527;52.124;5.196;2022-09-27T10:02:31;99752.00;;;20.40
20733;BMP180;10527;52.124;5.196;2022-09-27T10:05:01;99748.00;;;20.40
20733;BMP180;10527;52.124;5.196;2022-09-27T10:07:37;99746.00;;;20.40
20733;BMP180;10527;52.124;5.196;2022-09-27T10:10:15;99736.00;;;20.40
20733;BMP180;10527;52.124;5.196;2022-09-27T10:12:48;99723.00;;;20.40
20733;BMP180;10527;52.124;5.196;2022-09-27T10:15:23;99722.00;;;20.40
20733;BMP180;10527;52.124;5.196;2022-09-27T10:17:55;99719.00;;;20.50
20733;BMP180;10527;52.124;5.196;2022-09-27T10:20:38;99727.00;;;20.60
20733;BMP180;10527;52.124;5.196;2022-09-27T10:23:17;99726.00;;;20.60
20733;BMP180;10527;52.124;5.196;2022-09-27T10:25:54;99727.00;;;20.60
20733;BMP180;10527;52.124;5.196;2022-09-27T10:31:08;99736.00;;;20.70
20733;BMP180;10527;52.124;5.196;2022-09-27T10:34:01;99734.00;;;20.80
20733;BMP180;10527;52.124;5.196;2022-09-27T10:36:31;99729.00;;;20.80
20733;BMP180;10527;52.124;5.196;2022-09-27T10:39:02;99736.00;;;20.80
20733;BMP180;10527;52.124;5.196;2022-09-27T10:41:36;99741.00;;;20.90
20733;BMP180;10527;52.124;5.196;2022-09-27T10:46:46;99750.00;;;20.90
20733;BMP180;10527;52.124;5.196;2022-09-27T10:49:40;99744.00;;;21.00
20733;BMP180;10527;52.124;5.196;2022-09-27T10:52:20;99736.00;;;21.00
20733;BMP180;10527;52.124;5.196;2022-09-27T10:54:58;99732.00;;;21.00
20733;BMP180;10527;52.124;5.196;2022-09-27T10:57:30;99735.00;;;21.00
20733;BMP180;10527;52.124;5.196;2022-09-27T11:00:23;99732.00;;;21.00
20733;BMP180;10527;52.124;5.196;2022-09-27T11:03:14;99734.00;;;21.10
20733;BMP180;10527;52.124;5.196;2022-09-27T11:05:42;99737.00;;;21.10
20733;BMP180;10527;52.124;5.196;2022-09-27T11:13:33;99733.00;;;21.10
20733;BMP180;10527;52.124;5.196;2022-09-27T11:17:04;99731.00;;;21.10
20733;BMP180;10527;52.124;5.196;2022-09-27T11:31:46;99723.00;;;21.10
20733;BMP180;10527;52.124;5.196;2022-09-27T11:34:48;99722.00;;;21.10
20733;BMP180;10527;52.124;5.196;2022-09-27T11:44:20;99712.00;;;21.00
20733;BMP180;10527;52.124;5.196;2022-09-27T12:04:38;99722.00;;;21.00
20733;BMP180;10527;52.124;5.196;2022-09-27T12:07:22;99726.00;;;21.00
20733;BMP180;10527;52.124;5.196;2022-09-27T12:10:00;99730.00;;;20.90
20733;BMP180;10527;52.124;5.196;2022-09-27T12:12:32;99731.00;;;20.90
20733;BMP180;10527;52.124;5.196;2022-09-27T12:15:16;99726.00;;;20.90
20733;BMP180;10527;52.124;5.196;2022-09-27T12:17:49;99742.00;;;20.80
20733;BMP180;10527;52.124;5.196;2022-09-27T12:20:27;99747.00;;;20.80
20733;BMP180;10527;52.124;5.196;2022-09-27T12:23:24;99739.00;;;20.70
20733;BMP180;10527;52.124;5.196;2022-09-27T12:26:37;99733.00;;;20.60
20733;BMP180;10527;52.124;5.196;2022-09-27T12:29:13;99730.00;;;20.50
20733;BMP180;10527;52.124;5.196;2022-09-27T12:32:09;99729.00;;;20.40
20733;BMP180;10527;52.124;5.196;2022-09-27T12:34:58;99730.00;;;20.40
20733;BMP180;10527;52.124;5.196;2022-09-27T12:37:33;99722.00;;;20.30
20733;BMP180;10527;52.124;5.196;2022-09-27T12:43:01;99723.00;;;20.30
20733;BMP180;10527;52.124;5.196;2022-09-27T12:45:36;99717.00;;;20.30
20733;BMP180;10527;52.124;5.196;2022-09-27T12:48:22;99718.00;;;20.30
20733;BMP180;10527;52.124;5.196;2022-09-27T13:12:53;99698.00;;;20.80
20733;BMP180;10527;52.124;5.196;2022-09-27T13:15:33;99695.00;;;20.90
20733;BMP180;10527;52.124;5.196;2022-09-27T13:18:06;99695.00;;;21.00
20733;BMP180;10527;52.124;5.196;2022-09-27T13:20:38;99692.00;;;21.10
20733;BMP180;10527;52.124;5.196;2022-09-27T13:25:58;99689.00;;;21.20
20733;BMP180;10527;52.124;5.196;2022-09-27T13:31:11;99682.00;;;21.40
20733;BMP180;10527;52.124;5.196;2022-09-27T13:33:59;99684.00;;;21.50
20733;BMP180;10527;52.124;5.196;2022-09-27T13:36:31;99681.00;;;21.50
20733;BMP180;10527;52.124;5.196;2022-09-27T13:47:23;99674.00;;;22.00
20733;BMP180;10527;52.124;5.196;2022-09-27T13:55:50;99678.00;;;22.30
20733;BMP180;10527;52.124;5.196;2022-09-27T13:58:56;99670.00;;;22.30
20733;BMP180;10527;52.124;5.196;2022-09-27T14:02:10;99669.00;;;22.40
20733;BMP180;10527;52.124;5.196;2022-09-27T14:04:49;99661.00;;;22.40
20733;BMP180;10527;52.124;5.196;2022-09-27T14:07:34;99660.00;;;22.40
20733;BMP180;10527;52.124;5.196;2022-09-27T14:10:03;99660.00;;;22.40
20733;BMP180;10527;52.124;5.196;2022-09-27T14:12:34;99663.00;;;22.40
20733;BMP180;10527;52.124;5.196;2022-09-27T14:15:04;99663.00;;;22.40
20733;BMP180;10527;52.124;5.196;2022-09-27T14:17:33;99658.00;;;22.40
20733;BMP180;10527;52.124;5.196;2022-09-27T14:20:00;99669.00;;;22.30
20733;BMP180;10527;52.124;5.196;2022-09-27T14:22:29;99661.00;;;22.40
20733;BMP180;10527;52.124;5.196;2022-09-27T14:24:57;99668.00;;;22.40
20733;BMP180;10527;52.124;5.196;2022-09-27T14:27:34;99648.00;;;22.40
20733;BMP180;10527;52.124;5.196;2022-09-27T14:30:16;99646.00;;;22.40
20733;BMP180;10527;52.124;5.196;2022-09-27T14:32:55;99640.00;;;22.40
20733;BMP180;10527;52.124;5.196;2022-09-27T14:35:29;99642.00;;;22.30
20733;BMP180;10527;52.124;5.196;2022-09-27T14:38:19;99635.00;;;22.30
20733;BMP180;10527;52.124;5.196;2022-09-27T14:41:07;99636.00;;;22.30
20733;BMP180;10527;52.124;5.196;2022-09-27T14:43:41;99629.00;;;22.30
20733;BMP180;10527;52.124;5.196;2022-09-27T14:46:30;99626.00;;;22.40
20733;BMP180;10527;52.124;5.196;2022-09-27T14:48:57;99618.00;;;22.40
20733;BMP180;10527;52.124;5.196;2022-09-27T14:51:29;99635.00;;;22.40
20733;BMP180;10527;52.124;5.196;2022-09-27T14:53:59;99634.00;;;22.50
20733;BMP180;10527;52.124;5.196;2022-09-27T14:56:35;99626.00;;;22.50
20733;BMP180;10527;52.124;5.196;2022-09-27T14:59:13;99634.00;;;22.50
20733;BMP180;10527;52.124;5.196;2022-09-27T15:02:17;99630.00;;;22.60
20733;BMP180;10527;52.124;5.196;2022-09-27T15:04:47;99636.00;;;22.60
20733;BMP180;10527;52.124;5.196;2022-09-27T15:07:18;99632.00;;;22.60
20733;BMP180;10527;52.124;5.196;2022-09-27T15:09:45;99627.00;;;22.60
20733;BMP180;10527;52.124;5.196;2022-09-27T15:12:23;99632.00;;;22.60
20733;BMP180;10527;52.124;5.196;2022-09-27T15:14:53;99625.00;;;22.60
20733;BMP180;10527;52.124;5.196;2022-09-27T15:17:21;99626.00;;;22.60
20733;BMP180;10527;52.124;5.196;2022-09-27T15:20:02;99629.00;;;22.60
20733;BMP180;10527;52.124;5.196;2022-09-27T15:22:40;99623.00;;;22.60
20733;BMP180;10527;52.124;5.196;2022-09-27T15:25:35;99626.00;;;22.60
20733;BMP180;10527;52.124;5.196;2022-09-27T15:28:17;99612.00;;;22.60
20733;BMP180;10527;52.124;5.196;2022-09-27T15:30:56;99611.00;;;22.50
20733;BMP180;10527;52.124;5.196;2022-09-27T15:33:27;99603.00;;;22.50
20733;BMP180;10527;52.124;5.196;2022-09-27T15:36:00;99598.00;;;22.50
20733;BMP180;10527;52.124;5.196;2022-09-27T15:38:35;99601.00;;;22.50
20733;BMP180;10527;52.124;5.196;2022-09-27T15:41:15;99598.00;;;22.50
20733;BMP180;10527;52.124;5.196;2022-09-27T15:43:48;99595.00;;;22.50
20733;BMP180;10527;52.124;5.196;2022-09-27T15:46:41;99597.00;;;22.50
20733;BMP180;10527;52.124;5.196;2022-09-27T15:49:27;99597.00;;;22.50
20733;BMP180;10527;52.124;5.196;2022-09-27T15:51:59;99597.00;;;22.40
20733;BMP180;10527;52.124;5.196;2022-09-27T15:54:29;99589.00;;;22.40
20733;BMP180;10527;52.124;5.196;2022-09-27T15:57:01;99594.00;;;22.40
20733;BMP180;10527;52.124;5.196;2022-09-27T15:59:34;99591.00;;;22.40
20733;BMP180;10527;52.124;5.196;2022-09-27T16:02:13;99583.00;;;22.40
20733;BMP180;10527;52.124;5.196;2022-09-27T16:04:42;99592.00;;;22.40
20733;BMP180;10527;52.124;5.196;2022-09-27T16:07:10;99593.00;;;22.40
20733;BMP180;10527;52.124;5.196;2022-09-27T16:09:40;99597.00;;;22.40
20733;BMP180;10527;52.124;5.196;2022-09-27T16:12:09;99595.00;;;22.30
20733;BMP180;10527;52.124;5.196;2022-09-27T16:14:35;99585.00;;;22.30
20733;BMP180;10527;52.124;5.196;2022-09-27T16:17:02;99574.00;;;22.20
20733;BMP180;10527;52.124;5.196;2022-09-27T16:19:29;99575.00;;;22.20
20733;BMP180;10527;52.124;5.196;2022-09-27T16:21:56;99580.00;;;22.20
20733;BMP180;10527;52.124;5.196;2022-09-27T16:24:23;99580.00;;;22.10
20733;BMP180;10527;52.124;5.196;2022-09-27T16:26:51;99580.00;;;22.10
20733;BMP180;10527;52.124;5.196;2022-09-27T16:29:17;99577.00;;;22.00
20733;BMP180;10527;52.124;5.196;2022-09-27T16:31:44;99582.00;;;22.00
20733;BMP180;10527;52.124;5.196;2022-09-27T16:34:12;99586.00;;;22.00
20733;BMP180;10527;52.124;5.196;2022-09-27T16:36:39;99590.00;;;22.00
20733;BMP180;10527;52.124;5.196;2022-09-27T16:39:10;99589.00;;;22.00
20733;BMP180;10527;52.124;5.196;2022-09-27T16:41:39;99591.00;;;21.90
20733;BMP180;10527;52.124;5.196;2022-09-27T16:44:12;99593.00;;;21.90
20733;BMP180;10527;52.124;5.196;2022-09-27T16:46:59;99587.00;;;21.80
20733;BMP180;10527;52.124;5.196;2022-09-27T16:49:26;99585.00;;;21.80
20733;BMP180;10527;52.124;5.196;2022-09-27T16:52:13;99578.00;;;21.80
20733;BMP180;10527;52.124;5.196;2022-09-27T16:54:44;99581.00;;;21.80
20733;BMP180;10527;52.124;5.196;2022-09-27T16:57:11;99581.00;;;21.80
20733;BMP180;10527;52.124;5.196;2022-09-27T16:59:37;99575.00;;;21.90
20733;BMP180;10527;52.124;5.196;2022-09-27T17:02:04;99577.00;;;21.90
20733;BMP180;10527;52.124;5.196;2022-09-27T17:04:31;99577.00;;;21.90
20733;BMP180;10527;52.124;5.196;2022-09-27T17:07:02;99573.00;;;21.90
20733;BMP180;10527;52.124;5.196;2022-09-27T17:09:32;99575.00;;;21.90
20733;BMP180;10527;52.124;5.196;2022-09-27T17:11:59;99570.00;;;21.90
20733;BMP180;10527;52.124;5.196;2022-09-27T17:14:25;99572.00;;;21.80
20733;BMP180;10527;52.124;5.196;2022-09-27T17:16:52;99568.00;;;21.80
20733;BMP180;10527;52.124;5.196;2022-09-27T17:19:19;99566.00;;;21.80
20733;BMP180;10527;52.124;5.196;2022-09-27T17:21:47;99566.00;;;21.80
20733;BMP180;10527;52.124;5.196;2022-09-27T17:24:15;99565.00;;;21.80
20733;BMP180;10527;52.124;5.196;2022-09-27T17:26:42;99569.00;;;21.80
20733;BMP180;10527;52.124;5.196;2022-09-27T17:29:11;99572.00;;;21.80
20733;BMP180;10527;52.124;5.196;2022-09-27T17:31:39;99576.00;;;21.90